Tiempo atmosférico en la estación meteorológica de Barcena de Cicero, Treto, Cantabria (10 m.)



Fecha
DESCASC
Temp. máxima en grados centígrados (hora)
DESCASC
Temp. mínima en grados centígrados (hora)
DESCASC
Temp. media en grados centígrados
DESCASC
Racha de viento máxima en m/sg (hora)
DESCASC
Velocidad máxima media en intervalos de 10 minutos(hora)
DESCASC
Precipitaciones diarias en mm
DESCASC
Precipitaciones de 00:00 a 06:00 en mm
DESCASC
Precipitaciones de 06:00 a 12:00 en mm
DESCASC
Precipitaciones de 12:00 a 18:00 en mm
DESCASC
Precipitaciones de 18:00 a 24:00 en mm
DESCASC
22-01-2020 9.3 (17:00) 5.4 (22:00) 7.4 3.61 (04:50) 2.5 (04:30) 1.4 0 0.2 1.2 0
21-01-2020 8.9 (14:40) 2.6 (06:10) 5.7 8.06 (13:40) 4.72 (13:40) 0 0 0 0 0
20-01-2020 8.9 (00:50) 6.2 (22:10) 7.5 14.17 (01:10) 9.72 (00:10) 0 0 0 0 0
19-01-2020 10.9 (05:40) 8.7 (00:00) 9.8 15 (21:50) 10 (21:10) 7.8 7.6 0.2 0 0
18-01-2020 18.5 (14:50) 5 (00:00) 11.8 20.83 (16:50) 9.44 (17:00) 4.6 0 0 2.8 1.8
17-01-2020 16.4 (01:20) 7.3 (00:00) 11.8 11.67 (00:50) 5.28 (00:20) 4 0 4 0 0
16-01-2020 18.3 (18:50) 4.3 (00:00) 11.3 16.11 (22:00) 6.67 (21:10) 0 0 0 0 0
15-01-2020 17.1 (10:00) 6 (00:00) 11.6 17.22 (08:00) 7.5 (06:50) 0 0 0 0 0
14-01-2020 18 (16:00) 9.9 (00:00) 13.9 15.56 (23:30) 7.22 (22:20) 0 0 0 0 0
13-01-2020 15 (14:50) 2.4 (00:00) 8.7 7.78 (23:30) 4.44 (23:20) 0 0 0 0 0
12-01-2020 13.4 (16:10) 1.5 (00:00) 7.4 6.11 (09:20) 3.89 (09:20) 0 0 0 0 0
11-01-2020 13.4 (14:40) 2.6 (00:00) 8 6.67 (07:50) 4.17 (08:40) 0 0 0 0 0
10-01-2020 11.7 (13:20) 7.7 (00:00) 9.7 12.5 (03:10) 5 (00:40) 2.8 0.6 1.2 1 0
09-01-2020 20.1 (15:30) 4.9 (00:00) 12.5 21.11 (15:50) 9.72 (15:50) 1.4 0 0 0.6 0.8
08-01-2020 15.2 (14:30) 5.1 (00:00) 10.1 4.17 (08:30) 2.5 (06:30) 0 0 0 0 0
07-01-2020 14 (15:40) 4.1 (00:00) 9 6.67 (00:30) 4.72 (00:30) 0 0 0 0 0
06-01-2020 13.3 (13:30) 0.2 (00:00) 6.8 7.22 (08:50) 3.61 (08:50) 0 0 0 0 0
05-01-2020 11.7 (14:50) 2.8 (00:00) 7.2 7.78 (16:40) 5.83 (15:40) 0 0 0 0 0
04-01-2020 11.8 (13:30) 5.8 (00:00) 8.8 4.44 (14:30) 2.78 (14:40) 3.6 2.8 0.8 0 0
03-01-2020 11.6 (16:50) 6 (00:00) 8.8 7.5 (08:10) 5 (04:30) 0 0 0 0 0
02-01-2020 13.1 (15:20) 1.3 (00:00) 7.2 5.28 (05:10) 2.78 (01:00) 0 0 0 0 0
01-01-2020 13.3 (13:00) 4.2 (00:00) 8.8 6.39 (05:20) 3.61 (10:40) 0 0 0 0 0
31-12-2019 -- (--) -- (--) -- -- (--) -- (--) -- -- -- 0 0
30-12-2019 -- (--) -- (--) -- -- (--) -- (--) -- 0 0 0 --
29-12-2019 13.1 (15:40) 1.3 (00:00) 7.2 3.89 (02:40) 2.22 (16:20) 0 0 0 0 0
28-12-2019 12.8 (13:10) 1.8 (00:00) 7.3 9.44 (15:50) 5 (15:20) 0 0 0 0 0
27-12-2019 13.8 (14:20) 2.7 (00:00) 8.3 8.06 (16:10) 5.56 (16:10) 0 0 0 0 0
26-12-2019 17.3 (02:30) 5.5 (00:00) 11.4 12.78 (02:20) 6.67 (02:20) 0 0 0 0 0

Gráficas

Temp. máximas Temp. mínimas Temp. medias Precipitaciones Rachas de viento máximas Velocidades máximas media en intervalos de 10 minutos

Datos horarios

Fecha y hora oficial Temperatura (ºC) Velocidad del viento (km/h) Dirección del viento Racha (km/h) Dirección de racha Precipitación (mm) Presión (hPa) Tendencia (hPa) Humedad (%)
2020-01-24 23:00:00 7.3 4 Sur 10 Sur 0 -- -- 97
2020-01-24 22:00:00 8 2 Este 5 Sur 0 -- -- 95
2020-01-24 21:00:00 9 2 Oeste 9 Sur 0 -- -- 94
2020-01-24 20:00:00 9.6 4 Sur 9 Sur 0 -- -- 94
2020-01-24 19:00:00 10.1 0 Calma 5 Noroeste 0 -- -- 89
2020-01-24 18:00:00 11.6 3 Noroeste 7 Este 0 -- -- 81
2020-01-24 17:00:00 12.5 2 Este 7 Norte 0 -- -- 78
2020-01-24 16:00:00 12.9 3 Nordeste 8 Nordeste 0 -- -- 75
2020-01-24 15:00:00 13.1 4 Nordeste 9 Nordeste 0 -- -- 73
2020-01-24 14:00:00 12.8 3 Nordeste 6 Nordeste 0 -- -- 72
2020-01-24 13:00:00 12.3 0 Calma 6 Norte 0 -- -- 74
2020-01-24 12:00:00 11.4 0 Calma 6 Sur 0 -- -- 79
2020-01-24 11:00:00 9.8 0 Calma 6 Sur 0 -- -- 90
2020-01-24 10:00:00 7.4 3 Sudeste 8 Sur 0 -- -- 94
2020-01-24 09:00:00 6.2 3 Sudeste 5 Noroeste 0 -- -- 93
2020-01-24 08:00:00 6.4 3 Noroeste 7 Noroeste 0 -- -- 92
2020-01-24 07:00:00 6.7 3 Oeste 6 Noroeste 0 -- -- 89
2020-01-24 06:00:00 7.7 4 Sudoeste 11 Sur 0 -- -- 81
2020-01-24 05:00:00 7.9 5 Sur 10 Sur 0 -- -- 78
2020-01-24 04:00:00 8 7 Sur 10 Sur 0 -- -- 82
2020-01-24 03:00:00 10 4 Sur 20 Sudeste 0 -- -- 68
2020-01-24 02:00:00 10.6 9 Sur 18 Sudeste 0 -- -- 67
2020-01-24 01:00:00 9.7 12 Sur 23 Sur 0 -- -- 74
2020-01-24 00:00:00 7.3 7 Sur 13 Sur 0 -- -- 98
2020-01-23 23:00:00 6.1 0 Calma 5 Sur 0 -- -- 98
2020-01-23 22:00:00 6.5 3 Noroeste 5 Noroeste 0 -- -- 97
2020-01-23 21:00:00 7.2 0 Calma 7 Sur 0 -- -- 96
2020-01-23 20:00:00 8.2 4 Sur 8 Sudoeste 0 -- -- 95
2020-01-23 19:00:00 8.6 3 Sur 5 Noroeste 0 -- -- 93
2020-01-23 18:00:00 9.7 0 Calma 5 Noroeste 0 -- -- 89
2020-01-23 17:00:00 10.6 3 Noroeste 3 Noroeste 0 -- -- 83
2020-01-23 16:00:00 10.9 3 Sur 6 Este 0 -- -- 80
2020-01-23 15:00:00 11 3 Este 6 Este 0 -- -- 80
2020-01-23 14:00:00 10.5 2 Este 6 Noroeste 0 -- -- 82
2020-01-23 13:00:00 9.3 6 Noroeste 8 Noroeste 0 -- -- 93
2020-01-23 12:00:00 7.7 0 Calma 13 Sudeste 0 -- -- 98
2020-01-23 11:00:00 6.5 7 Sur 9 Sur 0 -- -- 99
2020-01-23 10:00:00 5.5 3 Sudoeste 9 Sur 0 -- -- 99
2020-01-23 09:00:00 5 2 Sur 12 Sur 0 -- -- 98
2020-01-23 08:00:00 5.2 8 Sur 14 Sudoeste 0 -- -- 100
2020-01-23 07:00:00 5 6 Sur 17 Sur 0 -- -- 99
2020-01-23 06:00:00 4.7 7 Sur 13 Sudeste 0 -- -- 98
2020-01-23 05:00:00 5.6 8 Sur 16 Sur 0 -- -- 98
2020-01-23 04:00:00 5.9 6 Sur 9 Sur 0 -- -- 98
2020-01-23 03:00:00 7 8 Sur 15 Sudoeste 0 -- -- 98
2020-01-23 02:00:00 6.9 7 Sur 13 Sudeste 0 -- -- 99
2020-01-23 01:00:00 6.4 4 Sur 6 Sur 0 -- -- 99
2020-01-23 00:00:00 6.1 3 Oeste 6 Oeste 0 -- -- 99
2020-01-22 23:00:00 5.7 3 Noroeste 8 Norte 0 -- -- 98
2020-01-22 22:00:00 5.4 0 Calma 9 Sur 0 -- -- 98
2020-01-22 21:00:00 5.7 0 Calma 5 Sudoeste 0 -- -- 97
2020-01-22 20:00:00 6.1 0 Calma 7 Sur 0 -- -- 97
2020-01-22 19:00:00 6.5 0 Calma 5 Noroeste 0 -- -- 94
2020-01-22 18:00:00 8.4 0 Calma 7 Sur 0 -- -- 92
2020-01-22 17:00:00 9.3 3 Sudoeste 7 Sur 0 -- -- 94
2020-01-22 16:00:00 9 5 Sur 7 Sur 0 -- -- 95
2020-01-22 15:00:00 9 3 Noroeste 5 Nordeste 0.4 -- -- 95
2020-01-22 14:00:00 9.1 0 Calma 5 Noroeste 0.6 -- -- 95
2020-01-22 13:00:00 9.1 0 Calma 4 Sudoeste 0.2 -- -- 93
2020-01-22 12:00:00 8.6 3 Sudoeste 8 Sur 0 -- -- 94
2020-01-22 11:00:00 8.4 2 Sudoeste 5 Sur 0.2 -- -- 95
2020-01-22 10:00:00 8.1 2 Sur 8 Sur 0 -- -- 95
2020-01-22 09:00:00 7.9 2 Oeste 5 Sudoeste 0 -- -- 95
2020-01-22 08:00:00 7.6 3 Sur 10 Sur 0 -- -- 96
2020-01-22 07:00:00 7.5 3 Sudoeste 6 Sudeste 0 -- -- 94
2020-01-22 06:00:00 7.5 5 Sur 9 Sur 0 -- -- 93
2020-01-22 05:00:00 7.5 8 Sur 13 Sudeste 0 -- -- 91
2020-01-22 04:00:00 7.3 6 Sur 12 Sudeste 0 -- -- 90
2020-01-22 03:00:00 7.2 4 Sur 9 Sudoeste 0 -- -- 89
2020-01-22 02:00:00 7.2 4 Sur 9 Sur 0 -- -- 89
2020-01-22 01:00:00 7.1 5 Sur 10 Sur 0 -- -- 88
2020-01-22 00:00:00 7.1 6 Sudoeste 10 Sudoeste 0 -- -- 88
2020-01-21 23:00:00 6.9 3 Sur 9 Sur 0 -- -- 87
2020-01-21 22:00:00 6.9 2 Sur 5 Sur 0 -- -- 86
2020-01-21 21:00:00 7.1 0 Calma 6 Sudoeste 0 -- -- 82
2020-01-21 20:00:00 7.3 2 Sur 5 Sudoeste 0 -- -- 79
2020-01-21 19:00:00 7.6 3 Sur 9 Sur 0 -- -- 75
2020-01-21 18:00:00 7.9 3 Sur 13 Sudeste 0 -- -- 73
2020-01-21 17:00:00 8.3 4 Sudeste 19 Este 0 -- -- 73
2020-01-21 16:00:00 8.6 10 Sudeste 27 Este 0 -- -- 73
2020-01-21 15:00:00 8.9 14 Este 28 Este 0 -- -- 68
2020-01-21 14:00:00 8.7 14 Este 29 Este 0 -- -- 70
2020-01-21 13:00:00 7.8 9 Este 22 Este 0 -- -- 84
2020-01-21 12:00:00 6.4 3 Sur 7 Sur 0 -- -- 89
2020-01-21 11:00:00 5.3 8 Sur 11 Sudeste 0 -- -- 90
2020-01-21 10:00:00 4.5 7 Sur 15 Sur 0 -- -- 92
2020-01-21 09:00:00 3.7 5 Sur 12 Sur 0 -- -- 94
2020-01-21 08:00:00 3.4 5 Sur 10 Sur 0 -- -- 94
2020-01-21 07:00:00 3.1 6 Sur 12 Sur 0 -- -- 95
2020-01-21 06:00:00 2.7 6 Sur 10 Sur 0 -- -- 94
2020-01-21 05:00:00 3.1 5 Sur 10 Sur 0 -- -- 92
2020-01-21 04:00:00 4.1 6 Sur 13 Sur 0 -- -- 87
2020-01-21 03:00:00 5 6 Sur 13 Sur 0 -- -- 83
2020-01-21 02:00:00 6 8 Sur 14 Sur 0 -- -- 74
2020-01-21 01:00:00 7.1 5 Sur 17 Este 0 -- -- 67
2020-01-21 00:00:00 7.3 6 Sudeste 16 Este 0 -- -- 68
2020-01-20 23:00:00 6.2 0 Calma 13 Sur 0 -- -- 76
2020-01-20 22:00:00 6.3 5 Sur 9 Sur 0 -- -- 75
2020-01-20 21:00:00 6.5 3 Oeste 14 Sur 0 -- -- 72
2020-01-20 20:00:00 6.6 3 Sudeste 11 Sudoeste 0 -- -- 70
2020-01-20 19:00:00 6.7 3 Sudoeste 15 Este 0 -- -- 66
2020-01-20 18:00:00 6.8 0 Calma 8 Este 0 -- -- 66
2020-01-20 17:00:00 6.9 5 Este 18 Este 0 -- -- 65
2020-01-20 16:00:00 7.4 9 Nordeste 23 Este 0 -- -- 60
2020-01-20 15:00:00 7.9 10 Este 28 Nordeste 0 -- -- 62
2020-01-20 14:00:00 7.9 15 Este 27 Este 0 -- -- 56
2020-01-20 13:00:00 7.6 15 Este 26 Este 0 -- -- 56
2020-01-20 12:00:00 7.6 17 Este 34 Este 0 -- -- 59
2020-01-20 11:00:00 7.5 16 Este 30 Este 0 -- -- 58
2020-01-20 10:00:00 7.3 15 Nordeste 35 Este 0 -- -- 54
2020-01-20 09:00:00 7.3 22 Este 34 Este 0 -- -- 59
2020-01-20 08:00:00 7.4 23 Este 36 Nordeste 0 -- -- 59
2020-01-20 07:00:00 7.4 23 Este 39 Este 0 -- -- 59
2020-01-20 06:00:00 7.6 23 Este 43 Este 0 -- -- 60
2020-01-20 05:00:00 7.9 23 Nordeste 44 Nordeste 0 -- -- 59
2020-01-20 04:00:00 8 27 Este 43 Este 0 -- -- 60
2020-01-20 03:00:00 8.3 26 Este 41 Este 0 -- -- 56
2020-01-20 02:00:00 8.5 30 Este 51 Este 0 -- -- 54
2020-01-20 01:00:00 8.8 30 Este 51 Nordeste 0 -- -- 57
2020-01-20 00:00:00 8.8 36 Este 53 Este 0 -- -- 55
2020-01-19 23:00:00 8.8 34 Este 53 Nordeste 0 -- -- 56
2020-01-19 22:00:00 8.9 33 Este 54 Este 0 -- -- 58
2020-01-19 21:00:00 9 30 Este 53 Nordeste 0 -- -- 57
2020-01-19 20:00:00 9.3 22 Nordeste 46 Este 0 -- -- 59
2020-01-19 19:00:00 9.3 17 Nordeste 36 Nordeste 0 -- -- 58
2020-01-19 18:00:00 9.1 14 Nordeste 33 Nordeste 0 -- -- 58
2020-01-19 17:00:00 9.4 15 Nordeste 33 Nordeste 0 -- -- 58
2020-01-19 16:00:00 9.7 18 Nordeste 36 Nordeste 0 -- -- 57
2020-01-19 15:00:00 10 20 Este 37 Este 0 -- -- 56
2020-01-19 14:00:00 10 14 Nordeste 36 Este 0 -- -- 58
2020-01-19 13:00:00 10.1 19 Nordeste 37 Este 0 -- -- 56
2020-01-19 12:00:00 10.1 14 Nordeste 28 Este 0 -- -- 61
2020-01-19 11:00:00 10.1 15 Nordeste 36 Este 0 -- -- 64
2020-01-19 10:00:00 9.7 13 Nordeste 31 Este 0 -- -- 65
2020-01-19 09:00:00 9.6 13 Nordeste 29 Nordeste 0 -- -- 68
2020-01-19 08:00:00 10.1 12 Nordeste 33 Nordeste 0 -- -- 71
2020-01-19 07:00:00 10.4 14 Nordeste 35 Nordeste 0.2 -- -- 73
2020-01-19 06:00:00 10.7 17 Nordeste 41 Nordeste 0.2 -- -- 73
2020-01-19 05:00:00 10.2 15 Nordeste 36 Este 0.2 -- -- 80
2020-01-19 04:00:00 10.1 27 Este 41 Este 0 -- -- 77
2020-01-19 03:00:00 10 18 Nordeste 40 Este 2.6 -- -- 90
2020-01-19 02:00:00 10.5 11 Noroeste 28 Oeste 0.6 -- -- 94
2020-01-19 01:00:00 9.6 3 Oeste 17 Noroeste 4 -- -- 95
2020-01-19 00:00:00 9.5 3 Sudoeste 8 Sudoeste 0.8 -- -- 94
2020-01-18 23:00:00 9.8 0 Calma 8 Oeste 0 -- -- 90
2020-01-18 22:00:00 9.8 5 Sudoeste 14 Oeste 0.2 -- -- 87
2020-01-18 21:00:00 10.3 8 Oeste 29 Oeste 0.8 -- -- 81
2020-01-18 20:00:00 10.9 7 Oeste 21 Sudoeste 0 -- -- 71
2020-01-18 19:00:00 10.4 9 Oeste 21 Sudoeste 0 -- -- 76
2020-01-18 18:00:00 9.9 6 Sudoeste 63 Noroeste 2 -- -- 84
2020-01-18 17:00:00 12 34 Noroeste 75 Noroeste 0.8 -- -- 80
2020-01-18 16:00:00 17 14 Sur 31 Sur 0 -- -- 49
2020-01-18 15:00:00 17.9 13 Sur 26 Sur 0 -- -- 45
2020-01-18 14:00:00 16.9 10 Sur 40 Sudeste 0 -- -- 48
2020-01-18 13:00:00 16.2 21 Sur 36 Sur 0 -- -- 47
2020-01-18 12:00:00 12.5 7 Sudoeste 14 Sudoeste 0 -- -- 66
2020-01-18 11:00:00 9.2 3 Norte 9 Sudoeste 0 -- -- 88
2020-01-18 10:00:00 6.6 4 Sur 8 Noroeste 0 -- -- 95
2020-01-18 09:00:00 5.4 4 Noroeste 10 Noroeste 0 -- -- 92
2020-01-18 08:00:00 6.1 2 Noroeste 10 Oeste 0 -- -- 93
2020-01-18 07:00:00 6.6 3 Sur 10 Sudoeste 0 -- -- 91
2020-01-18 06:00:00 7 3 Sur 8 Sur 0 -- -- 89
2020-01-18 05:00:00 6.7 2 Sur 6 Este 0 -- -- 92
2020-01-18 04:00:00 6.9 3 Sur 11 Sur 0 -- -- 91
2020-01-18 03:00:00 6.8 4 Sur 9 Noroeste 0 -- -- 92
2020-01-18 02:00:00 6.9 0 Calma 11 Sur 0 -- -- 90
2020-01-18 01:00:00 6.8 3 Sudoeste 10 Sur 0 -- -- 91
2020-01-18 00:00:00 7.3 8 Sur 19 Sur 0 -- -- 87
2020-01-17 23:00:00 7.6 8 Sur 13 Sur 0 -- -- 87
2020-01-17 22:00:00 7.5 5 Sur 11 Norte 0 -- -- 86
2020-01-17 21:00:00 8.8 4 Sur 10 Sudoeste 0 -- -- 75
2020-01-17 20:00:00 9 5 Sudoeste 9 Oeste 0 -- -- 75
2020-01-17 19:00:00 9.7 3 Sudoeste 10 Sudoeste 0 -- -- 68
2020-01-17 18:00:00 10.7 7 Oeste 27 Noroeste 0 -- -- 64
2020-01-17 17:00:00 11.6 10 Oeste 30 Noroeste 0 -- -- 57
2020-01-17 16:00:00 12.8 13 Noroeste 27 Noroeste 0 -- -- 52
2020-01-17 15:00:00 13.3 17 Noroeste 35 Oeste 0 -- -- 53
2020-01-17 14:00:00 13 14 Noroeste 32 Noroeste 0 -- -- 57
2020-01-17 13:00:00 11.7 9 Noroeste 29 Oeste 0 -- -- 67
2020-01-17 12:00:00 11.3 14 Oeste 28 Oeste 0 -- -- 68
2020-01-17 11:00:00 11.3 11 Oeste 21 Noroeste 0 -- -- 77
2020-01-17 10:00:00 9.9 8 Sudoeste 18 Sudoeste 0.6 -- -- 82
2020-01-17 09:00:00 9.7 6 Sur 22 Oeste 0.2 -- -- 85
2020-01-17 08:00:00 10.3 9 Oeste 32 Oeste 0 -- -- 80
2020-01-17 07:00:00 10.3 7 Oeste 35 Noroeste 3.2 -- -- 87
2020-01-17 06:00:00 10.6 5 Norte 10 Norte 0 -- -- 93
2020-01-17 05:00:00 10.1 5 Noroeste 13 Norte 0 -- -- 89
2020-01-17 04:00:00 11 5 Sudoeste 9 Sudoeste 0 -- -- 84
2020-01-17 03:00:00 12.3 5 Oeste 27 Noroeste 0 -- -- 75
2020-01-17 02:00:00 15.5 16 Noroeste 39 Sudoeste 0 -- -- 48
2020-01-17 01:00:00 16.2 15 Sudoeste 42 Oeste 0 -- -- 42
2020-01-17 00:00:00 11.9 6 Sudoeste 15 Sudoeste 0 -- -- 77
2020-01-16 23:00:00 13.3 6 Nordeste 40 Oeste 0 -- -- 76
2020-01-16 22:00:00 17.1 23 Oeste 58 Oeste 0 -- -- 36
2020-01-16 21:00:00 17.8 22 Oeste 44 Oeste 0 -- -- 30
2020-01-16 20:00:00 18 11 Sudoeste 37 Sur 0 -- -- 26
2020-01-16 19:00:00 18.2 18 Sur 41 Sudoeste 0 -- -- 28
2020-01-16 18:00:00 18.1 12 Oeste 25 Oeste 0 -- -- 29
2020-01-16 17:00:00 16.9 8 Sudoeste 27 Sur 0 -- -- 37
2020-01-16 16:00:00 13.5 6 Sudeste 16 Norte 0 -- -- 76
2020-01-16 15:00:00 14.8 2 Sudoeste 12 Sur 0 -- -- 70
2020-01-16 14:00:00 14.9 4 Oeste 10 Noroeste 0 -- -- 74
2020-01-16 13:00:00 16.1 4 Noroeste 10 Noroeste 0 -- -- 70
2020-01-16 12:00:00 15.4 4 Sudeste 11 Norte 0 -- -- 77
2020-01-16 11:00:00 13.9 5 Noroeste 17 Sudoeste 0 -- -- 84
2020-01-16 10:00:00 10 3 Oeste 10 Sur 0 -- -- 93
2020-01-16 09:00:00 8.9 3 Oeste 9 Noroeste 0 -- -- 93
2020-01-16 08:00:00 8.2 2 Noroeste 14 Sur 0 -- -- 94
2020-01-16 07:00:00 7.3 3 Sur 10 Oeste 0 -- -- 94
2020-01-16 06:00:00 9 6 Noroeste 21 Sur 0 -- -- 89
2020-01-16 05:00:00 5.1 3 Norte 8 Noroeste 0 -- -- 99
2020-01-16 04:00:00 4.8 3 Noroeste 6 Noroeste 0 -- -- 99
2020-01-16 03:00:00 4.5 0 Calma 5 Sur 0 -- -- 99
2020-01-16 02:00:00 4.6 3 Este 7 Sur 0 -- -- 97
2020-01-16 01:00:00 5.1 4 Sur 6 Sur 0 -- -- 98
2020-01-16 00:00:00 6 3 Sur 7 Sur 0 -- -- 97
2020-01-15 23:00:00 6.8 5 Sur 12 Sur 0 -- -- 96
2020-01-15 22:00:00 7.6 3 Sur 6 Sudeste 0 -- -- 95
2020-01-15 21:00:00 9.6 3 Sur 7 Sur 0 -- -- 91
2020-01-15 20:00:00 11 3 Sur 7 Este 0 -- -- 87
2020-01-15 19:00:00 12.9 4 Nordeste 9 Norte 0 -- -- 82
2020-01-15 18:00:00 13.1 3 Norte 12 Norte 0 -- -- 78
2020-01-15 17:00:00 13.5 7 Norte 15 Norte 0 -- -- 75
2020-01-15 16:00:00 14.3 7 Norte 19 Norte 0 -- -- 72
2020-01-15 15:00:00 14.7 12 Noroeste 27 Noroeste 0 -- -- 67
2020-01-15 14:00:00 16.5 9 Norte 21 Noroeste 0 -- -- 58
2020-01-15 13:00:00 15.7 2 Nordeste 15 Sur 0 -- -- 61
2020-01-15 12:00:00 14.3 9 Oeste 36 Oeste 0 -- -- 66
2020-01-15 11:00:00 16.3 24 Oeste 50 Sudoeste 0 -- -- 52
2020-01-15 10:00:00 17.1 18 Oeste 45 Sudoeste 0 -- -- 43
2020-01-15 09:00:00 16.5 14 Sudoeste 57 Sudoeste 0 -- -- 44
2020-01-15 08:00:00 16.7 26 Sudoeste 62 Sur 0 -- -- 43
2020-01-15 07:00:00 16.8 24 Sudoeste 55 Sudoeste 0 -- -- 43
2020-01-15 06:00:00 15.3 9 Sur 32 Sur 0 -- -- 51
2020-01-15 05:00:00 15.8 6 Sur 37 Sudoeste 0 -- -- 48
2020-01-15 04:00:00 15.6 14 Sur 32 Sur 0 -- -- 48
2020-01-15 03:00:00 15 11 Sudoeste 37 Sudeste 0 -- -- 48
2020-01-15 02:00:00 16 13 Sur 45 Sur 0 -- -- 41
2020-01-15 01:00:00 15.6 14 Sur 50 Oeste 0 -- -- 45
2020-01-15 00:00:00 15.6 14 Sudoeste 56 Oeste 0 -- -- 44
2020-01-14 23:00:00 16.1 23 Sudoeste 51 Sudoeste 0 -- -- 39
2020-01-14 22:00:00 15.6 10 Sudoeste 32 Sudoeste 0 -- -- 38
2020-01-14 21:00:00 15.3 3 Norte 45 Oeste 0 -- -- 38
2020-01-14 20:00:00 16.3 13 Oeste 28 Oeste 0 -- -- 34
2020-01-14 19:00:00 16.4 14 Sudoeste 35 Sudoeste 0 -- -- 34
2020-01-14 18:00:00 15.9 12 Sudoeste 30 Sudoeste 0 -- -- 37
2020-01-14 17:00:00 15.8 9 Sudoeste 25 Sudoeste 0 -- -- 36
2020-01-14 16:00:00 18 4 Sudeste 17 Sur 0 -- -- 37
2020-01-14 15:00:00 16.8 9 Sur 26 Sur 0 -- -- 38
2020-01-14 14:00:00 16.5 16 Sur 28 Sur 0 -- -- 41
2020-01-14 13:00:00 16.4 10 Sur 37 Sur 0 -- -- 42
2020-01-14 12:00:00 15.1 18 Sur 40 Sur 0 -- -- 51
2020-01-14 11:00:00 15.6 22 Sur 43 Sur 0 -- -- 51
2020-01-14 10:00:00 13.2 18 Sur 32 Sur 0 -- -- 57
2020-01-14 09:00:00 12.9 14 Sur 36 Sudeste 0 -- -- 57
2020-01-14 08:00:00 13 17 Sur 31 Sudeste 0 -- -- 57
2020-01-14 07:00:00 13 14 Sur 32 Sudeste 0 -- -- 57
2020-01-14 06:00:00 13.1 17 Sur 38 Sudeste 0 -- -- 54
2020-01-14 05:00:00 12.7 16 Sur 36 Sur 0 -- -- 55
2020-01-14 04:00:00 12.6 18 Sur 32 Sudoeste 0 -- -- 53
2020-01-14 03:00:00 11.4 7 Sur 15 Sudeste 0 -- -- 55
2020-01-14 02:00:00 10.2 5 Sur 15 Sur 0 -- -- 62
2020-01-14 01:00:00 12 8 Sur 24 Sur 0 -- -- 52
2020-01-14 00:00:00 11.3 8 Sur 28 Sur 0 -- -- 51
2020-01-13 23:00:00 10 14 Sur 26 Sur 0 -- -- 57
2020-01-13 22:00:00 8.1 10 Sur 17 Sur 0 -- -- 64
2020-01-13 21:00:00 4.1 5 Sur 8 Sur 0 -- -- 90
2020-01-13 20:00:00 4.5 3 Sur 6 Sudeste 0 -- -- 88
2020-01-13 19:00:00 6.6 0 Calma 7 Noroeste 0 -- -- 85
2020-01-13 18:00:00 9 3 Sur 8 Noroeste 0 -- -- 81
2020-01-13 17:00:00 12.2 3 Oeste 8 Noroeste 0 -- -- 77
2020-01-13 16:00:00 13.9 5 Noroeste 12 Nordeste 0 -- -- 68
2020-01-13 15:00:00 15 5 Este 12 Nordeste 0 -- -- 60
2020-01-13 14:00:00 13.8 5 Sur 8 Sudeste 0 -- -- 65
2020-01-13 13:00:00 11.4 2 Sudoeste 8 Sur 0 -- -- 72
2020-01-13 12:00:00 9.1 0 Calma 8 Noroeste 0 -- -- 88
2020-01-13 11:00:00 7.2 4 Sur 9 Sur 0 -- -- 90
2020-01-13 10:00:00 5.4 3 Oeste 18 Sur 0 -- -- 93
2020-01-13 09:00:00 3.8 10 Sur 17 Sudoeste 0 -- -- 98
2020-01-13 08:00:00 3.6 8 Sur 21 Sur 0 -- -- 99
2020-01-13 07:00:00 2.9 6 Sur 12 Sur 0 -- -- 99
2020-01-13 06:00:00 2.7 4 Sur 9 Sudoeste 0 -- -- 99
2020-01-13 05:00:00 2.8 5 Sudoeste 13 Sur 0 -- -- 98
2020-01-13 04:00:00 3 4 Sur 12 Sur 0 -- -- 98
2020-01-13 03:00:00 3 6 Sur 15 Sur 0 -- -- 98
2020-01-13 02:00:00 3 10 Sur 12 Sur 0 -- -- 97
2020-01-13 01:00:00 3.8 8 Sur 12 Sur 0 -- -- 97
2020-01-13 00:00:00 3.9 3 Oeste 12 Sur 0 -- -- 96
2020-01-12 23:00:00 4.7 6 Sur 18 Sur 0 -- -- 96
2020-01-12 22:00:00 4.5 7 Sur 11 Sur 0 -- -- 96
2020-01-12 21:00:00 5.5 4 Sur 10 Sur 0 -- -- 95
2020-01-12 20:00:00 6 6 Sur 9 Sur 0 -- -- 94
2020-01-12 19:00:00 7.3 3 Sur 7 Sur 0 -- -- 88
2020-01-12 18:00:00 9.8 2 Noroeste 6 Norte 0 -- -- 82
2020-01-12 17:00:00 12.9 3 Norte 8 Nordeste 0 -- -- 67
2020-01-12 16:00:00 13.3 5 Nordeste 9 Este 0 -- -- 64
2020-01-12 15:00:00 12.8 3 Nordeste 7 Nordeste 0 -- -- 73
2020-01-12 14:00:00 12.4 3 Este 7 Sudeste 0 -- -- 65
2020-01-12 13:00:00 11.2 5 Sur 15 Sur 0 -- -- 72
2020-01-12 12:00:00 8.1 6 Sur 14 Sur 0 -- -- 84
2020-01-12 11:00:00 5.6 8 Sur 21 Sudeste 0 -- -- 91
2020-01-12 10:00:00 2.9 11 Sur 22 Sur 0 -- -- 98
2020-01-12 09:00:00 1.6 12 Sur 20 Sudeste 0 -- -- 98
2020-01-12 08:00:00 1.7 9 Sur 16 Sur 0 -- -- 98
2020-01-12 07:00:00 2.1 10 Sur 21 Sur 0 -- -- 98
2020-01-12 06:00:00 2.4 12 Sur 20 Sudeste 0 -- -- 98
2020-01-12 05:00:00 1.7 8 Sur 19 Sudeste 0 -- -- 98
2020-01-12 04:00:00 2 9 Sur 18 Sur 0 -- -- 98
2020-01-12 03:00:00 2.6 9 Sur 20 Sudeste 0 -- -- 96
2020-01-12 02:00:00 3.5 9 Sur 20 Sudeste 0 -- -- 97
2020-01-12 01:00:00 3.4 7 Sur 15 Sur 0 -- -- 98
2020-01-12 00:00:00 4 9 Sur 16 Sur 0 -- -- 98
2020-01-11 23:00:00 4.1 4 Sur 9 Sur 0 -- -- 98
2020-01-11 22:00:00 5 5 Sur 12 Sur 0 -- -- 97
2020-01-11 21:00:00 5.7 6 Sur 11 Sur 0 -- -- 96
2020-01-11 20:00:00 6.6 8 Sur 12 Sur 0 -- -- 94
2020-01-11 19:00:00 8.3 0 Calma 5 Noroeste 0 -- -- 87
2020-01-11 18:00:00 11.1 2 Norte 15 Este 0 -- -- 79
2020-01-11 17:00:00 12.3 8 Nordeste 17 Este 0 -- -- 76
2020-01-11 16:00:00 13.2 8 Nordeste 15 Nordeste 0 -- -- 69
2020-01-11 15:00:00 13.4 6 Nordeste 12 Nordeste 0 -- -- 65
2020-01-11 14:00:00 12.9 3 Este 9 Noroeste 0 -- -- 69
2020-01-11 13:00:00 11.7 0 Calma 13 Sudeste 0 -- -- 80
2020-01-11 12:00:00 8.7 8 Sur 21 Sur 0 -- -- 91
2020-01-11 11:00:00 6.2 12 Sur 21 Sudeste 0 -- -- 99
2020-01-11 10:00:00 3.8 9 Sur 18 Sur 0 -- -- 100
2020-01-11 09:00:00 3.3 12 Sur 21 Sur 0 -- -- 99
2020-01-11 08:00:00 3.6 13 Sur 24 Sur 0 -- -- 100
2020-01-11 07:00:00 3.5 9 Sur 19 Sudeste 0 -- -- 100
2020-01-11 06:00:00 3.8 8 Sur 19 Sur 0 -- -- 100
2020-01-11 05:00:00 4.6 9 Sur 19 Sur 0 -- -- 99
2020-01-11 04:00:00 5.3 9 Sur 17 Sur 0 -- -- 100
2020-01-11 03:00:00 5.3 6 Sur 13 Sur 0 -- -- 99
2020-01-11 02:00:00 6 9 Sur 14 Sudoeste 0 -- -- 98
2020-01-11 01:00:00 6.5 6 Sur 13 Sur 0 -- -- 98
2020-01-11 00:00:00 7.7 3 Sur 13 Sur 0 -- -- 98
2020-01-10 23:00:00 8 7 Sur 11 Sur 0 -- -- 98
2020-01-10 22:00:00 7.7 3 Sur 8 Sur 0 -- -- 98
2020-01-10 21:00:00 7.9 4 Sur 9 Sur 0 -- -- 98
2020-01-10 20:00:00 8.4 7 Sur 11 Sur 0 -- -- 97
2020-01-10 19:00:00 9 9 Sur 12 Sudeste 0 -- -- 94
2020-01-10 18:00:00 9.9 5 Sur 10 Sur 0 -- -- 89
2020-01-10 17:00:00 11.2 8 Sur 12 Sur 0 -- -- 86
2020-01-10 16:00:00 10.9 0 Calma 15 Oeste 0.2 -- -- 87
2020-01-10 15:00:00 11.2 5 Noroeste 19 Noroeste 0.2 -- -- 83
2020-01-10 14:00:00 11.3 8 Oeste 27 Oeste 0.6 -- -- 85
2020-01-10 13:00:00 10.9 5 Oeste 23 Oeste 0 -- -- 89
2020-01-10 12:00:00 10 10 Oeste 21 Oeste 0 -- -- 89
2020-01-10 11:00:00 9.7 8 Noroeste 23 Oeste 0.6 -- -- 88
2020-01-10 10:00:00 9.3 8 Oeste 25 Sudoeste 0.4 -- -- 85
2020-01-10 09:00:00 9.1 10 Sudoeste 22 Oeste 0.2 -- -- 85
2020-01-10 08:00:00 9.1 7 Oeste 25 Noroeste 0 -- -- 83
2020-01-10 07:00:00 9.1 8 Oeste 24 Oeste 0 -- -- 79
2020-01-10 06:00:00 9 10 Oeste 27 Oeste 0 -- -- 80
2020-01-10 05:00:00 9.2 10 Oeste 31 Oeste 0.2 -- -- 83
2020-01-10 04:00:00 9.9 11 Oeste 45 Noroeste 0 -- -- 76
2020-01-10 03:00:00 10.7 13 Oeste 31 Oeste 0 -- -- 71
2020-01-10 02:00:00 10.5 9 Oeste 36 Noroeste 0.2 -- -- 74
2020-01-10 01:00:00 11.3 12 Noroeste 35 Oeste 0.2 -- -- 70
2020-01-10 00:00:00 11.4 10 Oeste 24 Oeste 0 -- -- 66
2020-01-09 23:00:00 11 10 Oeste 23 Sudoeste 0 -- -- 69
2020-01-09 22:00:00 11 7 Oeste 28 Oeste 0 -- -- 75
2020-01-09 21:00:00 10.9 6 Oeste 15 Oeste 0 -- -- 86
2020-01-09 20:00:00 10.9 6 Sudoeste 20 Noroeste 0.6 -- -- 86
2020-01-09 19:00:00 11.6 8 Sudoeste 36 Oeste 0.2 -- -- 82
2020-01-09 18:00:00 12.1 18 Oeste 48 Oeste 0.2 -- -- 79
2020-01-09 17:00:00 11.8 14 Oeste 55 Noroeste 0.4 -- -- 81
2020-01-09 16:00:00 14.8 29 Noroeste 76 Oeste 0 -- -- 69
2020-01-09 15:00:00 19.7 12 Sur 24 Sur 0 -- -- 48
2020-01-09 14:00:00 19.5 12 Sur 28 Sudeste 0 -- -- 55
2020-01-09 13:00:00 18.3 14 Sur 25 Sur 0 -- -- 60
2020-01-09 12:00:00 15.3 14 Sur 28 Sur 0 -- -- 70
2020-01-09 11:00:00 12.6 14 Sur 26 Sur 0 -- -- 75
2020-01-09 10:00:00 9.6 12 Sur 23 Sur 0 -- -- 86
2020-01-09 09:00:00 8.2 15 Sur 24 Sur 0 -- -- 92
2020-01-09 08:00:00 7.5 8 Sur 20 Sur 0 -- -- 94
2020-01-09 07:00:00 6.9 10 Sur 16 Sur 0 -- -- 98
2020-01-09 06:00:00 6.1 8 Sur 14 Sur 0 -- -- 99
2020-01-09 05:00:00 5.8 9 Sur 15 Sur 0 -- -- 99
2020-01-09 04:00:00 5.3 9 Sur 14 Sur 0 -- -- 98
2020-01-09 03:00:00 5.4 5 Sur 9 Sur 0 -- -- 96
2020-01-09 02:00:00 6 3 Sur 14 Sur 0 -- -- 95
2020-01-09 01:00:00 6.2 8 Sudoeste 19 Sudeste 0 -- -- 96
2020-01-09 00:00:00 6.3 8 Sur 10 Sur 0 -- -- 96
2020-01-08 23:00:00 6.9 4 Sudoeste 9 Sur 0 -- -- 96
2020-01-08 22:00:00 6.7 0 Calma 8 Sur 0 -- -- 95
2020-01-08 21:00:00 7.4 4 Sur 10 Sur 0 -- -- 93
2020-01-08 20:00:00 8.3 6 Sur 9 Sur 0 -- -- 94
2020-01-08 19:00:00 9.2 0 Calma 5 Norte 0 -- -- 91
2020-01-08 18:00:00 11.8 3 Noroeste 6 Norte 0 -- -- 87
2020-01-08 17:00:00 13.9 4 Nordeste 9 Nordeste 0 -- -- 82
2020-01-08 16:00:00 14.7 5 Nordeste 9 Nordeste 0 -- -- 73
2020-01-08 15:00:00 15.2 4 Nordeste 10 Nordeste 0 -- -- 67
2020-01-08 14:00:00 14.8 5 Nordeste 7 Nordeste 0 -- -- 66
2020-01-08 13:00:00 13.9 2 Sudeste 9 Sudeste 0 -- -- 76
2020-01-08 12:00:00 11.5 4 Sur 9 Sur 0 -- -- 87
2020-01-08 11:00:00 8.5 8 Sur 11 Sur 0 -- -- 97
2020-01-08 10:00:00 6.9 4 Sudoeste 10 Sur 0 -- -- 100
2020-01-08 09:00:00 6.2 5 Sur 15 Sur 0 -- -- 100
2020-01-08 08:00:00 5.6 5 Sur 8 Sudoeste 0 -- -- 100
2020-01-08 07:00:00 5.6 6 Sur 14 Sur 0 -- -- 99
2020-01-08 06:00:00 5.6 5 Sur 10 Sur 0 -- -- 100
2020-01-08 05:00:00 5.7 6 Sur 13 Sur 0 -- -- 100
2020-01-08 04:00:00 5.2 8 Sur 11 Sur 0 -- -- 99
2020-01-08 03:00:00 5.1 4 Sur 12 Sudeste 0 -- -- 99
2020-01-08 02:00:00 6.6 6 Sur 13 Sudoeste 0 -- -- 100
2020-01-08 01:00:00 6 6 Sur 12 Sur 0 -- -- 99
2020-01-08 00:00:00 6 6 Sur 9 Sur 0 -- -- 98
2020-01-07 23:00:00 6.4 3 Sudoeste 14 Sudoeste 0 -- -- 98
2020-01-07 22:00:00 6.6 0 Calma 8 Sur 0 -- -- 96
2020-01-07 21:00:00 7.8 5 Sur 14 Sur 0 -- -- 96
2020-01-07 20:00:00 7.3 4 Sudoeste 9 Sudoeste 0 -- -- 96
2020-01-07 19:00:00 8.6 5 Noroeste 6 Noroeste 0 -- -- 93
2020-01-07 18:00:00 10.7 2 Oeste 6 Nordeste 0 -- -- 86
2020-01-07 17:00:00 12.8 4 Norte 17 Norte 0 -- -- 79
2020-01-07 16:00:00 13.5 9 Nordeste 16 Norte 0 -- -- 78
2020-01-07 15:00:00 13.5 4 Este 9 Nordeste 0 -- -- 76
2020-01-07 14:00:00 12.9 4 Noroeste 12 Nordeste 0 -- -- 78
2020-01-07 13:00:00 12.9 0 Calma 12 Sur 0 -- -- 78
2020-01-07 12:00:00 10.6 5 Sur 10 Sudeste 0 -- -- 85
2020-01-07 11:00:00 7.5 6 Sur 18 Sur 0 -- -- 94
2020-01-07 10:00:00 5.9 6 Sur 18 Sudeste 0 -- -- 97
2020-01-07 09:00:00 4.8 7 Sur 17 Sur 0 -- -- 97
2020-01-07 08:00:00 4.5 10 Sur 16 Sur 0 -- -- 98
2020-01-07 07:00:00 4.5 11 Sur 22 Sudeste 0 -- -- 97
2020-01-07 06:00:00 4.7 8 Sur 20 Sur 0 -- -- 96
2020-01-07 05:00:00 4.9 8 Sur 14 Sur 0 -- -- 96
2020-01-07 04:00:00 5.4 7 Sur 13 Sur 0 -- -- 95
2020-01-07 03:00:00 5.3 6 Sur 21 Sur 0 -- -- 95
2020-01-07 02:00:00 5.5 14 Sur 23 Sur 0 -- -- 96
2020-01-07 01:00:00 5.9 12 Sur 24 Sur 0 -- -- 97
2020-01-07 00:00:00 5.2 9 Sur 14 Sur 0 -- -- 97
2020-01-06 23:00:00 6.2 6 Sur 19 Sur 0 -- -- 96
2020-01-06 22:00:00 5.6 9 Sur 15 Sur 0 -- -- 96
2020-01-06 21:00:00 6.4 8 Sur 12 Sur 0 -- -- 96
2020-01-06 20:00:00 7.1 6 Sudoeste 12 Sur 0 -- -- 95
2020-01-06 19:00:00 7.7 4 Sur 9 Noroeste 0 -- -- 89
2020-01-06 18:00:00 10.2 3 Noroeste 14 Sur 0 -- -- 86
2020-01-06 17:00:00 11.8 6 Oeste 12 Oeste 0 -- -- 80
2020-01-06 16:00:00 12.3 8 Noroeste 17 Noroeste 0 -- -- 80
2020-01-06 15:00:00 12.6 9 Noroeste 18 Noroeste 0 -- -- 78
2020-01-06 14:00:00 13.2 5 Noroeste 12 Noroeste 0 -- -- 76
2020-01-06 13:00:00 12.3 4 Oeste 12 Noroeste 0 -- -- 79
2020-01-06 12:00:00 9.4 7 Sur 18 Sur 0 -- -- 79
2020-01-06 11:00:00 5.8 11 Sur 19 Sur 0 -- -- 92
2020-01-06 10:00:00 2.7 13 Sur 19 Sur 0 -- -- 99